createdAt,value
2023-03-16T00:00:44.063Z,24.50
2023-03-16T00:05:52.449Z,21.75
2023-03-16T00:10:56.974Z,23.50
2023-03-16T00:16:03.832Z,26.50
2023-03-16T00:21:08.501Z,27.25
2023-03-16T00:26:14.216Z,26.50
2023-03-16T00:31:18.726Z,24.75
2023-03-16T00:36:23.880Z,30.00
2023-03-16T00:41:28.463Z,24.00
2023-03-16T00:46:33.551Z,24.25
2023-03-16T00:51:38.145Z,22.75
2023-03-16T00:56:44.355Z,26.25
2023-03-16T01:01:49.045Z,36.00
2023-03-16T01:06:53.634Z,32.50
2023-03-16T01:11:58.361Z,33.00
2023-03-16T01:17:06.224Z,29.25
2023-03-16T01:22:11.701Z,37.75
2023-03-16T01:27:16.550Z,27.50
2023-03-16T01:32:21.050Z,33.00
2023-03-16T01:37:25.618Z,30.00
2023-03-16T01:42:56.813Z,31.50
2023-03-16T01:48:02.378Z,32.00
2023-03-16T01:53:07.304Z,27.50
2023-03-16T01:58:12.548Z,30.75
2023-03-16T02:03:19.166Z,25.50
2023-03-16T02:08:33.476Z,29.50
2023-03-16T02:13:38.228Z,29.50
2023-03-16T02:18:43.340Z,20.25
2023-03-16T02:23:48.986Z,35.50
2023-03-16T02:29:27.049Z,38.00
2023-03-16T02:34:32.095Z,62.50
2023-03-16T02:39:36.741Z,58.25
2023-03-16T02:44:44.822Z,61.25
2023-03-16T02:49:49.625Z,62.50
2023-03-16T02:54:54.489Z,84.50
2023-03-16T02:59:59.114Z,57.50
2023-03-16T03:05:04.118Z,49.25
2023-03-16T03:10:09.168Z,43.25
2023-03-16T03:15:15.195Z,47.50
2023-03-16T03:20:51.908Z,41.50
2023-03-16T03:26:04.124Z,37.50
2023-03-16T03:31:14.559Z,39.50
2023-03-16T03:36:19.126Z,37.50
2023-03-16T03:41:27.260Z,43.75
2023-03-16T03:46:32.387Z,35.50
2023-03-16T03:51:37.273Z,31.50
2023-03-16T03:56:51.944Z,33.75
2023-03-16T04:01:57.107Z,37.50
2023-03-16T04:07:07.249Z,41.50
2023-03-16T04:12:12.656Z,34.50
2023-03-16T04:17:17.361Z,42.00
2023-03-16T04:22:24.502Z,29.50
2023-03-16T04:27:29.881Z,29.00
2023-03-16T04:32:35.353Z,30.00
2023-03-16T04:37:39.962Z,28.25
2023-03-16T04:42:48.332Z,27.75
2023-03-16T04:47:56.671Z,31.25
2023-03-16T04:53:01.587Z,26.25
2023-03-16T04:58:06.601Z,34.75
2023-03-16T05:03:15.699Z,30.75
2023-03-16T05:08:21.060Z,30.00
2023-03-16T05:13:27.398Z,28.25
2023-03-16T05:18:35.461Z,25.00
2023-03-16T05:23:40.333Z,28.75
2023-03-16T05:28:46.284Z,25.25
2023-03-16T05:33:54.539Z,27.50
2023-03-16T05:39:00.660Z,25.25
2023-03-16T05:44:13.025Z,24.75
2023-03-16T05:49:35.890Z,25.00
2023-03-16T05:54:45.605Z,22.00
2023-03-16T05:59:50.514Z,26.25
2023-03-16T06:04:55.152Z,19.50
2023-03-16T06:10:01.260Z,20.25
2023-03-16T06:15:10.419Z,23.00
2023-03-16T06:20:15.084Z,19.50
2023-03-16T06:25:20.718Z,22.50
2023-03-16T06:30:25.920Z,26.75
2023-03-16T06:35:30.702Z,21.75
2023-03-16T06:40:56.044Z,17.00
2023-03-16T06:46:02.695Z,23.75
2023-03-16T06:51:08.916Z,27.75
2023-03-16T06:56:14.814Z,23.25
2023-03-16T07:01:23.022Z,19.75
2023-03-16T07:06:27.751Z,19.50
2023-03-16T07:11:33.764Z,31.25
2023-03-16T07:16:38.616Z,19.50
2023-03-16T07:21:45.773Z,20.75
2023-03-16T07:26:54.338Z,28.75
2023-03-16T07:32:05.288Z,21.25
2023-03-16T07:37:14.571Z,22.25
2023-03-16T07:42:21.315Z,18.00
2023-03-16T07:47:36.306Z,25.25
2023-03-16T07:52:47.939Z,22.75
2023-03-16T07:57:53.123Z,32.75
2023-03-16T08:03:05.125Z,26.50
2023-03-16T08:08:10.817Z,29.50
2023-03-16T08:13:16.617Z,21.50
2023-03-16T08:18:22.714Z,29.50
2023-03-16T08:23:28.901Z,16.75
2023-03-16T08:28:33.752Z,24.75
2023-03-16T08:33:45.259Z,29.50
2023-03-16T08:39:06.045Z,24.25
2023-03-16T08:44:18.673Z,23.50
2023-03-16T08:49:23.455Z,19.50
2023-03-16T08:54:36.833Z,29.50
2023-03-16T08:59:41.397Z,37.00
2023-03-16T09:04:47.208Z,27.25
2023-03-16T09:09:52.339Z,31.00
2023-03-16T09:14:57.311Z,28.25
2023-03-16T09:20:11.479Z,29.00
2023-03-16T09:25:29.312Z,28.00
2023-03-16T09:30:34.119Z,34.50
2023-03-16T09:35:39.276Z,30.25
2023-03-16T09:40:46.076Z,38.75
2023-03-16T09:46:01.929Z,40.25
2023-03-16T09:51:28.836Z,42.25
2023-03-16T09:56:41.979Z,43.25
2023-03-16T10:01:49.575Z,50.50
2023-03-16T10:06:54.594Z,40.25
2023-03-16T10:12:00.958Z,45.25
2023-03-16T10:17:18.939Z,51.00
2023-03-16T10:22:27.599Z,40.00
2023-03-16T10:27:37.905Z,40.00
2023-03-16T10:32:42.666Z,30.75
2023-03-16T10:37:47.821Z,46.50
2023-03-16T10:42:52.618Z,43.25
2023-03-16T10:48:07.265Z,40.00
2023-03-16T10:53:18.833Z,38.50
2023-03-16T10:58:32.448Z,33.25
2023-03-16T11:03:42.571Z,36.50
2023-03-16T11:08:48.874Z,38.75
2023-03-16T11:13:56.879Z,69.50
2023-03-16T11:19:22.053Z,68.25
2023-03-16T11:24:46.587Z,67.00
2023-03-16T11:29:52.425Z,65.50
2023-03-16T11:34:56.960Z,68.00
2023-03-16T11:40:19.104Z,65.50
2023-03-16T11:45:29.268Z,58.00
2023-03-16T11:50:38.963Z,55.25
2023-03-16T11:55:58.214Z,51.00
2023-03-16T12:01:25.773Z,43.50
2023-03-16T12:06:39.764Z,42.50
2023-03-16T12:12:15.673Z,43.75
2023-03-16T12:17:21.849Z,40.75
2023-03-16T12:22:32.130Z,44.75
2023-03-16T12:27:40.965Z,35.25
2023-03-16T12:32:48.388Z,31.25
2023-03-16T12:37:53.415Z,32.75
2023-03-16T12:43:00.271Z,34.00
2023-03-16T12:48:14.064Z,37.00
2023-03-16T12:53:44.744Z,29.50
2023-03-16T12:58:50.518Z,32.50
2023-03-16T13:04:01.691Z,35.00
2023-03-16T13:09:08.514Z,27.25
2023-03-16T13:14:18.405Z,32.00
2023-03-16T13:19:28.655Z,31.00
2023-03-16T13:24:44.280Z,27.00
2023-03-16T13:29:56.815Z,30.00
2023-03-16T13:35:03.537Z,36.00
2023-03-16T13:40:20.410Z,29.25
2023-03-16T13:45:29.827Z,28.25
2023-03-16T13:50:35.742Z,29.50
2023-03-16T13:55:40.807Z,29.25
2023-03-16T14:00:47.045Z,29.25
2023-03-16T14:05:52.098Z,27.50
2023-03-16T14:11:01.007Z,31.50
2023-03-16T14:16:06.508Z,28.50
2023-03-16T14:21:16.385Z,30.25
2023-03-16T14:26:24.883Z,21.00
2023-03-16T14:31:34.357Z,24.00
2023-03-16T14:36:40.414Z,25.50
2023-03-16T14:41:46.624Z,26.75
2023-03-16T14:46:52.229Z,27.75
2023-03-16T14:52:22.722Z,23.50
2023-03-16T14:57:28.392Z,27.25
2023-03-16T15:02:34.645Z,25.75
2023-03-16T15:07:44.373Z,25.00
2023-03-16T15:12:55.296Z,22.00
2023-03-16T15:18:00.510Z,23.00
2023-03-16T15:23:06.214Z,31.50
2023-03-16T15:28:18.595Z,22.50
2023-03-16T15:33:23.522Z,21.75
2023-03-16T15:38:30.928Z,23.25
2023-03-16T15:43:35.439Z,22.50
2023-03-16T15:48:40.182Z,22.00
2023-03-16T15:53:51.614Z,25.25
2023-03-16T15:58:56.250Z,23.25
2023-03-16T16:04:01.124Z,22.25
2023-03-16T16:09:05.686Z,27.25
2023-03-16T16:14:29.290Z,25.50
2023-03-16T16:19:35.694Z,24.50
2023-03-16T16:24:40.849Z,23.25
2023-03-16T16:29:45.564Z,27.50
2023-03-16T16:35:03.419Z,21.00
2023-03-16T16:40:08.992Z,23.25
2023-03-16T16:45:21.871Z,19.50
2023-03-16T16:50:27.773Z,22.25
2023-03-16T16:55:33.076Z,19.50
2023-03-16T17:00:39.305Z,20.00
2023-03-16T17:05:43.876Z,27.25
2023-03-16T17:10:49.082Z,20.25
2023-03-16T17:15:55.674Z,23.00
2023-03-16T17:21:00.265Z,25.75
2023-03-16T17:26:14.705Z,20.50
2023-03-16T17:31:23.445Z,21.50
2023-03-16T17:36:28.813Z,19.25
2023-03-16T17:41:33.504Z,20.00
2023-03-16T17:46:38.650Z,21.00
2023-03-16T17:51:44.694Z,16.75
2023-03-16T17:56:51.880Z,21.25
2023-03-16T18:01:56.592Z,22.25
2023-03-16T18:07:01.199Z,22.75
2023-03-16T18:12:05.963Z,21.75
2023-03-16T18:17:16.950Z,21.50
2023-03-16T18:22:23.266Z,21.00
2023-03-16T18:27:28.418Z,19.00
2023-03-16T18:32:33.105Z,19.25
2023-03-16T18:37:38.038Z,19.25
2023-03-16T18:42:42.639Z,24.50
2023-03-16T18:47:54.632Z,21.50
2023-03-16T18:52:59.648Z,19.50
2023-03-16T18:58:10.064Z,21.50
2023-03-16T19:03:21.098Z,21.25
2023-03-16T19:08:25.889Z,18.00
2023-03-16T19:13:31.050Z,23.50
2023-03-16T19:18:44.678Z,19.25
2023-03-16T19:23:52.564Z,21.75
2023-03-16T19:28:57.698Z,19.50
2023-03-16T19:34:02.455Z,18.75
2023-03-16T19:39:07.145Z,20.25
2023-03-16T19:44:17.385Z,20.25
2023-03-16T19:49:23.990Z,24.75
2023-03-16T19:54:29.798Z,17.50
2023-03-16T19:59:35.678Z,24.50
2023-03-16T20:04:40.469Z,17.25
2023-03-16T20:09:45.648Z,17.50
2023-03-16T20:14:50.992Z,19.75
2023-03-16T20:19:56.087Z,19.50
2023-03-16T20:25:03.360Z,21.00
2023-03-16T20:30:16.344Z,19.25
2023-03-16T20:35:25.543Z,24.00
2023-03-16T20:40:30.223Z,22.00
2023-03-16T20:45:35.895Z,20.75
2023-03-16T20:50:40.556Z,22.75
2023-03-16T20:55:45.570Z,28.00
2023-03-16T21:00:51.952Z,22.50
2023-03-16T21:05:59.663Z,23.25
2023-03-16T21:11:04.614Z,22.50
2023-03-16T21:16:11.901Z,27.75
2023-03-16T21:21:17.743Z,28.25
2023-03-16T21:26:24.200Z,28.25
2023-03-16T21:31:29.118Z,19.25
2023-03-16T21:36:33.267Z,24.00
2023-03-16T21:41:39.071Z,29.75
2023-03-16T21:46:43.773Z,26.00
2023-03-16T21:51:48.288Z,27.50
2023-03-16T21:56:52.411Z,25.50
2023-03-16T22:02:01.860Z,20.75
2023-03-16T22:07:12.118Z,23.75
2023-03-16T22:12:17.065Z,29.25
2023-03-16T22:17:23.497Z,30.75
2023-03-16T22:22:28.816Z,25.00
2023-03-16T22:27:33.135Z,30.00
2023-03-16T22:32:37.778Z,23.25
2023-03-16T22:37:42.664Z,34.25
2023-03-16T22:42:47.390Z,21.00
2023-03-16T22:47:51.916Z,30.75
2023-03-16T22:52:59.230Z,24.25
2023-03-16T22:58:15.883Z,28.25
2023-03-16T23:03:21.501Z,25.75
2023-03-16T23:08:27.721Z,26.25
2023-03-16T23:13:31.822Z,25.75
2023-03-16T23:18:36.072Z,26.00
2023-03-16T23:23:40.180Z,29.25
2023-03-16T23:28:44.567Z,34.00
2023-03-16T23:33:48.802Z,30.50
2023-03-16T23:38:53.072Z,41.25
2023-03-16T23:43:57.276Z,38.75
2023-03-16T23:49:04.378Z,33.00
2023-03-16T23:54:25.286Z,32.00
2023-03-16T23:59:29.973Z,27.50
